sensor_id;sensor_type;location;lat;lon;timestamp;P1;durP1;ratioP1;P2;durP2;ratioP2
1999;SDS011;1001;48.87406500;9.59633600;2022-07-03T00:01:31;1.70;;;1.60;;
1999;SDS011;1001;48.87406500;9.59633600;2022-07-03T00:03:57;1.53;;;1.30;;
1999;SDS011;1001;48.87406500;9.59633600;2022-07-03T00:06:24;1.53;;;1.30;;
1999;SDS011;1001;48.87406500;9.59633600;2022-07-03T00:08:52;2.40;;;1.50;;
1999;SDS011;1001;48.87406500;9.59633600;2022-07-03T00:11:19;1.23;;;1.13;;
1999;SDS011;1001;48.87406500;9.59633600;2022-07-03T00:13:46;1.40;;;1.30;;
1999;SDS011;1001;48.87406500;9.59633600;2022-07-03T00:16:13;1.30;;;1.20;;
1999;SDS011;1001;48.87406500;9.59633600;2022-07-03T00:18:41;1.60;;;1.37;;
1999;SDS011;1001;48.87406500;9.59633600;2022-07-03T00:21:08;1.40;;;1.30;;
1999;SDS011;1001;48.87406500;9.59633600;2022-07-03T00:23:38;1.60;;;1.10;;
1999;SDS011;1001;48.87406500;9.59633600;2022-07-03T00:26:08;1.53;;;1.20;;
1999;SDS011;1001;48.87406500;9.59633600;2022-07-03T00:28:36;1.43;;;1.33;;
1999;SDS011;1001;48.87406500;9.59633600;2022-07-03T00:31:03;1.33;;;1.23;;
1999;SDS011;1001;48.87406500;9.59633600;2022-07-03T00:33:31;1.80;;;1.70;;
1999;SDS011;1001;48.87406500;9.59633600;2022-07-03T00:36:01;1.50;;;1.40;;
1999;SDS011;1001;48.87406500;9.59633600;2022-07-03T00:38:28;1.57;;;1.47;;
1999;SDS011;1001;48.87406500;9.59633600;2022-07-03T00:40:55;1.20;;;1.10;;
1999;SDS011;1001;48.87406500;9.59633600;2022-07-03T00:43:22;5.03;;;1.50;;
1999;SDS011;1001;48.87406500;9.59633600;2022-07-03T00:45:51;1.87;;;1.40;;
1999;SDS011;1001;48.87406500;9.59633600;2022-07-03T00:48:20;2.70;;;1.80;;
1999;SDS011;1001;48.87406500;9.59633600;2022-07-03T00:50:48;1.57;;;1.43;;
1999;SDS011;1001;48.87406500;9.59633600;2022-07-03T00:53:20;1.67;;;1.40;;
1999;SDS011;1001;48.87406500;9.59633600;2022-07-03T00:55:53;1.77;;;1.50;;
1999;SDS011;1001;48.87406500;9.59633600;2022-07-03T00:58:21;1.30;;;1.20;;
1999;SDS011;1001;48.87406500;9.59633600;2022-07-03T01:00:50;3.00;;;1.70;;
1999;SDS011;1001;48.87406500;9.59633600;2022-07-03T01:03:18;2.33;;;1.30;;
1999;SDS011;1001;48.87406500;9.59633600;2022-07-03T01:05:49;1.90;;;1.60;;
1999;SDS011;1001;48.87406500;9.59633600;2022-07-03T01:08:19;2.07;;;1.37;;
1999;SDS011;1001;48.87406500;9.59633600;2022-07-03T01:10:54;1.67;;;1.57;;
1999;SDS011;1001;48.87406500;9.59633600;2022-07-03T01:13:38;2.30;;;1.27;;
1999;SDS011;1001;48.87406500;9.59633600;2022-07-03T01:16:12;1.87;;;1.57;;
1999;SDS011;1001;48.87406500;9.59633600;2022-07-03T01:18:49;1.70;;;1.60;;
1999;SDS011;1001;48.87406500;9.59633600;2022-07-03T01:21:21;1.40;;;1.30;;
1999;SDS011;1001;48.87406500;9.59633600;2022-07-03T01:24:15;2.40;;;1.37;;
1999;SDS011;1001;48.87406500;9.59633600;2022-07-03T01:26:54;1.43;;;1.33;;
1999;SDS011;1001;48.87406500;9.59633600;2022-07-03T01:29:25;1.63;;;1.50;;
1999;SDS011;1001;48.87406500;9.59633600;2022-07-03T01:31:57;1.63;;;1.53;;
1999;SDS011;1001;48.87406500;9.59633600;2022-07-03T01:34:25;2.03;;;1.40;;
1999;SDS011;1001;48.87406500;9.59633600;2022-07-03T01:36:59;1.70;;;1.60;;
1999;SDS011;1001;48.87406500;9.59633600;2022-07-03T01:39:26;1.73;;;1.63;;
1999;SDS011;1001;48.87406500;9.59633600;2022-07-03T01:41:56;1.80;;;1.40;;
1999;SDS011;1001;48.87406500;9.59633600;2022-07-03T01:44:25;2.50;;;1.70;;
1999;SDS011;1001;48.87406500;9.59633600;2022-07-03T01:46:55;3.63;;;1.30;;
1999;SDS011;1001;48.87406500;9.59633600;2022-07-03T01:49:24;1.60;;;1.10;;
1999;SDS011;1001;48.87406500;9.59633600;2022-07-03T01:51:52;3.20;;;2.23;;
1999;SDS011;1001;48.87406500;9.59633600;2022-07-03T01:54:20;2.60;;;1.73;;
1999;SDS011;1001;48.87406500;9.59633600;2022-07-03T01:56:50;1.50;;;1.40;;
1999;SDS011;1001;48.87406500;9.59633600;2022-07-03T01:59:18;1.70;;;1.60;;
1999;SDS011;1001;48.87406500;9.59633600;2022-07-03T02:01:48;2.57;;;1.60;;
1999;SDS011;1001;48.87406500;9.59633600;2022-07-03T02:04:20;2.03;;;1.47;;
1999;SDS011;1001;48.87406500;9.59633600;2022-07-03T02:06:51;1.80;;;1.30;;
1999;SDS011;1001;48.87406500;9.59633600;2022-07-03T02:09:27;2.07;;;1.40;;
1999;SDS011;1001;48.87406500;9.59633600;2022-07-03T02:12:01;1.50;;;1.40;;
1999;SDS011;1001;48.87406500;9.59633600;2022-07-03T02:14:35;2.60;;;2.20;;
1999;SDS011;1001;48.87406500;9.59633600;2022-07-03T02:17:07;1.83;;;1.73;;
1999;SDS011;1001;48.87406500;9.59633600;2022-07-03T02:19:41;2.00;;;1.80;;
1999;SDS011;1001;48.87406500;9.59633600;2022-07-03T02:22:14;2.00;;;1.90;;
1999;SDS011;1001;48.87406500;9.59633600;2022-07-03T02:24:44;1.83;;;1.73;;
1999;SDS011;1001;48.87406500;9.59633600;2022-07-03T02:27:14;5.63;;;1.60;;
1999;SDS011;1001;48.87406500;9.59633600;2022-07-03T02:29:46;3.43;;;1.53;;
1999;SDS011;1001;48.87406500;9.59633600;2022-07-03T02:32:17;1.60;;;1.50;;
1999;SDS011;1001;48.87406500;9.59633600;2022-07-03T02:34:48;3.30;;;1.97;;
1999;SDS011;1001;48.87406500;9.59633600;2022-07-03T02:37:24;2.60;;;1.50;;
1999;SDS011;1001;48.87406500;9.59633600;2022-07-03T02:39:58;3.73;;;1.50;;
1999;SDS011;1001;48.87406500;9.59633600;2022-07-03T02:42:30;2.47;;;1.33;;
1999;SDS011;1001;48.87406500;9.59633600;2022-07-03T02:45:07;2.30;;;1.67;;
1999;SDS011;1001;48.87406500;9.59633600;2022-07-03T02:47:37;2.67;;;2.10;;
1999;SDS011;1001;48.87406500;9.59633600;2022-07-03T02:50:12;5.60;;;1.73;;
1999;SDS011;1001;48.87406500;9.59633600;2022-07-03T02:52:47;1.80;;;1.70;;
1999;SDS011;1001;48.87406500;9.59633600;2022-07-03T02:55:26;1.50;;;1.40;;
1999;SDS011;1001;48.87406500;9.59633600;2022-07-03T02:58:03;2.00;;;1.40;;
1999;SDS011;1001;48.87406500;9.59633600;2022-07-03T03:00:41;3.30;;;1.90;;
1999;SDS011;1001;48.87406500;9.59633600;2022-07-03T03:03:19;2.00;;;1.47;;
1999;SDS011;1001;48.87406500;9.59633600;2022-07-03T03:05:53;1.77;;;1.57;;
1999;SDS011;1001;48.87406500;9.59633600;2022-07-03T03:08:24;2.23;;;1.20;;
1999;SDS011;1001;48.87406500;9.59633600;2022-07-03T03:11:02;1.40;;;1.30;;
1999;SDS011;1001;48.87406500;9.59633600;2022-07-03T03:13:32;3.33;;;2.00;;
1999;SDS011;1001;48.87406500;9.59633600;2022-07-03T03:16:03;2.93;;;1.40;;
1999;SDS011;1001;48.87406500;9.59633600;2022-07-03T03:18:31;1.50;;;1.40;;
1999;SDS011;1001;48.87406500;9.59633600;2022-07-03T03:21:00;2.23;;;1.60;;
1999;SDS011;1001;48.87406500;9.59633600;2022-07-03T03:23:42;2.63;;;1.47;;
1999;SDS011;1001;48.87406500;9.59633600;2022-07-03T03:26:10;2.43;;;1.27;;
1999;SDS011;1001;48.87406500;9.59633600;2022-07-03T03:28:38;2.47;;;1.60;;
1999;SDS011;1001;48.87406500;9.59633600;2022-07-03T03:31:06;1.63;;;1.53;;
1999;SDS011;1001;48.87406500;9.59633600;2022-07-03T03:33:35;1.47;;;1.37;;
1999;SDS011;1001;48.87406500;9.59633600;2022-07-03T03:36:05;2.20;;;1.40;;
1999;SDS011;1001;48.87406500;9.59633600;2022-07-03T03:38:33;2.30;;;2.10;;
1999;SDS011;1001;48.87406500;9.59633600;2022-07-03T03:40:59;2.37;;;2.17;;
1999;SDS011;1001;48.87406500;9.59633600;2022-07-03T03:43:27;1.80;;;1.70;;
1999;SDS011;1001;48.87406500;9.59633600;2022-07-03T03:45:54;1.40;;;1.30;;
1999;SDS011;1001;48.87406500;9.59633600;2022-07-03T03:48:22;2.07;;;1.40;;
1999;SDS011;1001;48.87406500;9.59633600;2022-07-03T03:50:48;2.60;;;1.47;;
1999;SDS011;1001;48.87406500;9.59633600;2022-07-03T03:53:15;4.10;;;1.87;;
1999;SDS011;1001;48.87406500;9.59633600;2022-07-03T03:55:57;1.57;;;1.43;;
1999;SDS011;1001;48.87406500;9.59633600;2022-07-03T03:58:25;2.43;;;1.50;;
1999;SDS011;1001;48.87406500;9.59633600;2022-07-03T04:00:52;4.70;;;1.73;;
1999;SDS011;1001;48.87406500;9.59633600;2022-07-03T04:03:19;3.03;;;1.60;;
1999;SDS011;1001;48.87406500;9.59633600;2022-07-03T04:05:47;1.67;;;1.50;;
1999;SDS011;1001;48.87406500;9.59633600;2022-07-03T04:08:13;2.57;;;1.67;;
1999;SDS011;1001;48.87406500;9.59633600;2022-07-03T04:10:40;1.87;;;1.73;;
1999;SDS011;1001;48.87406500;9.59633600;2022-07-03T04:13:06;2.80;;;1.80;;
1999;SDS011;1001;48.87406500;9.59633600;2022-07-03T04:15:33;1.73;;;1.63;;
1999;SDS011;1001;48.87406500;9.59633600;2022-07-03T04:18:00;3.70;;;2.03;;
1999;SDS011;1001;48.87406500;9.59633600;2022-07-03T04:20:26;1.60;;;1.50;;
1999;SDS011;1001;48.87406500;9.59633600;2022-07-03T04:22:54;2.90;;;2.17;;
1999;SDS011;1001;48.87406500;9.59633600;2022-07-03T04:25:21;2.47;;;1.60;;
1999;SDS011;1001;48.87406500;9.59633600;2022-07-03T04:27:47;1.50;;;1.40;;
1999;SDS011;1001;48.87406500;9.59633600;2022-07-03T04:30:14;4.30;;;1.50;;
1999;SDS011;1001;48.87406500;9.59633600;2022-07-03T04:32:41;1.47;;;1.33;;
1999;SDS011;1001;48.87406500;9.59633600;2022-07-03T04:35:08;2.57;;;1.40;;
1999;SDS011;1001;48.87406500;9.59633600;2022-07-03T04:37:35;2.20;;;1.80;;
1999;SDS011;1001;48.87406500;9.59633600;2022-07-03T04:40:03;2.57;;;1.70;;
1999;SDS011;1001;48.87406500;9.59633600;2022-07-03T04:42:31;1.90;;;1.60;;
1999;SDS011;1001;48.87406500;9.59633600;2022-07-03T04:44:57;1.80;;;1.53;;
1999;SDS011;1001;48.87406500;9.59633600;2022-07-03T04:47:24;1.80;;;1.70;;
1999;SDS011;1001;48.87406500;9.59633600;2022-07-03T04:49:51;2.30;;;1.77;;
1999;SDS011;1001;48.87406500;9.59633600;2022-07-03T04:52:17;2.13;;;1.40;;
1999;SDS011;1001;48.87406500;9.59633600;2022-07-03T04:54:44;2.67;;;2.47;;
1999;SDS011;1001;48.87406500;9.59633600;2022-07-03T04:57:12;1.73;;;1.50;;
1999;SDS011;1001;48.87406500;9.59633600;2022-07-03T04:59:38;2.03;;;1.53;;
1999;SDS011;1001;48.87406500;9.59633600;2022-07-03T05:02:05;2.47;;;1.63;;
1999;SDS011;1001;48.87406500;9.59633600;2022-07-03T05:04:32;2.30;;;2.10;;
1999;SDS011;1001;48.87406500;9.59633600;2022-07-03T05:06:59;1.70;;;1.60;;
1999;SDS011;1001;48.87406500;9.59633600;2022-07-03T05:09:25;2.07;;;1.47;;
1999;SDS011;1001;48.87406500;9.59633600;2022-07-03T05:11:52;1.30;;;1.20;;
1999;SDS011;1001;48.87406500;9.59633600;2022-07-03T05:14:20;2.40;;;1.50;;
1999;SDS011;1001;48.87406500;9.59633600;2022-07-03T05:16:47;1.83;;;1.50;;
1999;SDS011;1001;48.87406500;9.59633600;2022-07-03T05:19:13;1.43;;;1.30;;
1999;SDS011;1001;48.87406500;9.59633600;2022-07-03T05:21:40;2.00;;;1.80;;
1999;SDS011;1001;48.87406500;9.59633600;2022-07-03T05:24:07;1.80;;;1.70;;
1999;SDS011;1001;48.87406500;9.59633600;2022-07-03T05:26:33;1.80;;;1.60;;
1999;SDS011;1001;48.87406500;9.59633600;2022-07-03T05:29:00;1.77;;;1.67;;
1999;SDS011;1001;48.87406500;9.59633600;2022-07-03T05:31:28;7.23;;;2.20;;
1999;SDS011;1001;48.87406500;9.59633600;2022-07-03T05:33:54;1.93;;;1.60;;
1999;SDS011;1001;48.87406500;9.59633600;2022-07-03T05:36:21;1.90;;;1.40;;
1999;SDS011;1001;48.87406500;9.59633600;2022-07-03T05:38:48;1.40;;;1.27;;
1999;SDS011;1001;48.87406500;9.59633600;2022-07-03T05:41:28;3.30;;;1.80;;
1999;SDS011;1001;48.87406500;9.59633600;2022-07-03T05:43:55;1.17;;;1.07;;
1999;SDS011;1001;48.87406500;9.59633600;2022-07-03T05:46:22;1.80;;;1.67;;
1999;SDS011;1001;48.87406500;9.59633600;2022-07-03T05:48:50;1.60;;;1.50;;
1999;SDS011;1001;48.87406500;9.59633600;2022-07-03T05:51:17;1.70;;;1.60;;
1999;SDS011;1001;48.87406500;9.59633600;2022-07-03T05:53:43;2.07;;;1.40;;
1999;SDS011;1001;48.87406500;9.59633600;2022-07-03T05:56:10;1.50;;;1.40;;
1999;SDS011;1001;48.87406500;9.59633600;2022-07-03T05:58:36;2.10;;;1.63;;
1999;SDS011;1001;48.87406500;9.59633600;2022-07-03T06:01:03;3.80;;;1.73;;
1999;SDS011;1001;48.87406500;9.59633600;2022-07-03T06:03:30;3.87;;;1.80;;
1999;SDS011;1001;48.87406500;9.59633600;2022-07-03T06:05:58;1.70;;;1.60;;
1999;SDS011;1001;48.87406500;9.59633600;2022-07-03T06:08:25;2.50;;;1.70;;
1999;SDS011;1001;48.87406500;9.59633600;2022-07-03T06:10:51;2.07;;;1.43;;
1999;SDS011;1001;48.87406500;9.59633600;2022-07-03T06:13:18;1.80;;;1.70;;
1999;SDS011;1001;48.87406500;9.59633600;2022-07-03T06:15:45;1.70;;;1.60;;
1999;SDS011;1001;48.87406500;9.59633600;2022-07-03T06:18:12;1.50;;;1.40;;
1999;SDS011;1001;48.87406500;9.59633600;2022-07-03T06:20:38;1.47;;;1.37;;
1999;SDS011;1001;48.87406500;9.59633600;2022-07-03T06:23:06;2.07;;;1.40;;
1999;SDS011;1001;48.87406500;9.59633600;2022-07-03T06:25:33;1.47;;;1.37;;
1999;SDS011;1001;48.87406500;9.59633600;2022-07-03T06:27:59;1.70;;;1.60;;
1999;SDS011;1001;48.87406500;9.59633600;2022-07-03T06:30:26;2.10;;;1.60;;
1999;SDS011;1001;48.87406500;9.59633600;2022-07-03T06:32:53;3.43;;;1.93;;
1999;SDS011;1001;48.87406500;9.59633600;2022-07-03T06:35:19;2.60;;;1.60;;
1999;SDS011;1001;48.87406500;9.59633600;2022-07-03T06:37:46;3.97;;;1.50;;
1999;SDS011;1001;48.87406500;9.59633600;2022-07-03T06:40:14;1.63;;;1.47;;
1999;SDS011;1001;48.87406500;9.59633600;2022-07-03T06:42:40;2.17;;;1.73;;
1999;SDS011;1001;48.87406500;9.59633600;2022-07-03T06:45:07;3.60;;;1.67;;
1999;SDS011;1001;48.87406500;9.59633600;2022-07-03T06:47:36;1.37;;;1.27;;
1999;SDS011;1001;48.87406500;9.59633600;2022-07-03T06:50:04;2.00;;;1.63;;
1999;SDS011;1001;48.87406500;9.59633600;2022-07-03T06:52:31;1.77;;;1.57;;
1999;SDS011;1001;48.87406500;9.59633600;2022-07-03T06:54:58;1.83;;;1.70;;
1999;SDS011;1001;48.87406500;9.59633600;2022-07-03T06:57:26;2.23;;;1.67;;
1999;SDS011;1001;48.87406500;9.59633600;2022-07-03T06:59:52;2.27;;;1.57;;
1999;SDS011;1001;48.87406500;9.59633600;2022-07-03T07:02:19;2.17;;;1.60;;
1999;SDS011;1001;48.87406500;9.59633600;2022-07-03T07:04:45;2.60;;;1.67;;
1999;SDS011;1001;48.87406500;9.59633600;2022-07-03T07:07:12;2.70;;;1.80;;
1999;SDS011;1001;48.87406500;9.59633600;2022-07-03T07:09:39;1.70;;;1.57;;
1999;SDS011;1001;48.87406500;9.59633600;2022-07-03T07:12:05;2.13;;;1.40;;
1999;SDS011;1001;48.87406500;9.59633600;2022-07-03T07:14:34;1.57;;;1.47;;
1999;SDS011;1001;48.87406500;9.59633600;2022-07-03T07:17:00;2.13;;;1.60;;
1999;SDS011;1001;48.87406500;9.59633600;2022-07-03T07:19:27;1.27;;;1.17;;
1999;SDS011;1001;48.87406500;9.59633600;2022-07-03T07:21:54;2.67;;;1.43;;
1999;SDS011;1001;48.87406500;9.59633600;2022-07-03T07:24:20;2.33;;;1.50;;
1999;SDS011;1001;48.87406500;9.59633600;2022-07-03T07:26:47;2.17;;;1.47;;
1999;SDS011;1001;48.87406500;9.59633600;2022-07-03T07:29:13;1.33;;;1.00;;
1999;SDS011;1001;48.87406500;9.59633600;2022-07-03T07:31:41;8.73;;;1.70;;
1999;SDS011;1001;48.87406500;9.59633600;2022-07-03T07:34:08;1.63;;;1.47;;
1999;SDS011;1001;48.87406500;9.59633600;2022-07-03T07:36:35;2.17;;;1.47;;
1999;SDS011;1001;48.87406500;9.59633600;2022-07-03T07:39:02;1.40;;;1.20;;
1999;SDS011;1001;48.87406500;9.59633600;2022-07-03T07:41:28;1.30;;;1.20;;
1999;SDS011;1001;48.87406500;9.59633600;2022-07-03T07:43:55;1.47;;;1.37;;
1999;SDS011;1001;48.87406500;9.59633600;2022-07-03T07:46:22;1.73;;;1.10;;
1999;SDS011;1001;48.87406500;9.59633600;2022-07-03T07:48:50;3.53;;;1.57;;
1999;SDS011;1001;48.87406500;9.59633600;2022-07-03T07:51:17;1.43;;;1.30;;
1999;SDS011;1001;48.87406500;9.59633600;2022-07-03T07:53:43;1.57;;;1.47;;
1999;SDS011;1001;48.87406500;9.59633600;2022-07-03T07:56:10;1.20;;;1.10;;
1999;SDS011;1001;48.87406500;9.59633600;2022-07-03T07:58:37;1.57;;;1.47;;
1999;SDS011;1001;48.87406500;9.59633600;2022-07-03T08:01:03;2.50;;;1.30;;
1999;SDS011;1001;48.87406500;9.59633600;2022-07-03T08:03:47;1.23;;;1.13;;
1999;SDS011;1001;48.87406500;9.59633600;2022-07-03T08:06:33;2.20;;;1.67;;
1999;SDS011;1001;48.87406500;9.59633600;2022-07-03T08:08:59;2.13;;;1.33;;
1999;SDS011;1001;48.87406500;9.59633600;2022-07-03T08:11:26;1.97;;;1.40;;
1999;SDS011;1001;48.87406500;9.59633600;2022-07-03T08:13:53;1.60;;;1.50;;
1999;SDS011;1001;48.87406500;9.59633600;2022-07-03T08:16:19;3.13;;;2.10;;
1999;SDS011;1001;48.87406500;9.59633600;2022-07-03T08:18:46;2.00;;;1.40;;
1999;SDS011;1001;48.87406500;9.59633600;2022-07-03T08:21:12;1.50;;;1.40;;
1999;SDS011;1001;48.87406500;9.59633600;2022-07-03T08:23:40;1.43;;;1.33;;
1999;SDS011;1001;48.87406500;9.59633600;2022-07-03T08:26:07;3.83;;;1.33;;
1999;SDS011;1001;48.87406500;9.59633600;2022-07-03T08:28:33;3.70;;;1.47;;
1999;SDS011;1001;48.87406500;9.59633600;2022-07-03T08:31:00;1.67;;;1.10;;
1999;SDS011;1001;48.87406500;9.59633600;2022-07-03T08:33:27;0.83;;;0.80;;
1999;SDS011;1001;48.87406500;9.59633600;2022-07-03T08:35:53;1.40;;;1.30;;
1999;SDS011;1001;48.87406500;9.59633600;2022-07-03T08:38:20;1.13;;;1.03;;
1999;SDS011;1001;48.87406500;9.59633600;2022-07-03T08:40:56;1.10;;;0.93;;
1999;SDS011;1001;48.87406500;9.59633600;2022-07-03T08:43:24;0.97;;;0.90;;
1999;SDS011;1001;48.87406500;9.59633600;2022-07-03T08:45:51;1.20;;;1.10;;
1999;SDS011;1001;48.87406500;9.59633600;2022-07-03T08:48:19;0.97;;;0.90;;
1999;SDS011;1001;48.87406500;9.59633600;2022-07-03T08:50:48;1.07;;;0.97;;
1999;SDS011;1001;48.87406500;9.59633600;2022-07-03T08:53:16;0.73;;;0.73;;
1999;SDS011;1001;48.87406500;9.59633600;2022-07-03T08:55:44;1.30;;;1.00;;
1999;SDS011;1001;48.87406500;9.59633600;2022-07-03T08:58:13;1.47;;;1.20;;
1999;SDS011;1001;48.87406500;9.59633600;2022-07-03T09:00:41;1.27;;;1.17;;
1999;SDS011;1001;48.87406500;9.59633600;2022-07-03T09:03:09;1.50;;;1.40;;
1999;SDS011;1001;48.87406500;9.59633600;2022-07-03T09:05:36;1.27;;;1.10;;
1999;SDS011;1001;48.87406500;9.59633600;2022-07-03T09:08:05;1.40;;;1.30;;
1999;SDS011;1001;48.87406500;9.59633600;2022-07-03T09:10:33;1.27;;;0.90;;
1999;SDS011;1001;48.87406500;9.59633600;2022-07-03T09:13:00;1.90;;;1.07;;
1999;SDS011;1001;48.87406500;9.59633600;2022-07-03T09:15:28;1.10;;;0.70;;
1999;SDS011;1001;48.87406500;9.59633600;2022-07-03T09:17:56;1.03;;;0.70;;
1999;SDS011;1001;48.87406500;9.59633600;2022-07-03T09:20:27;1.90;;;1.57;;
1999;SDS011;1001;48.87406500;9.59633600;2022-07-03T09:22:58;1.83;;;0.97;;
1999;SDS011;1001;48.87406500;9.59633600;2022-07-03T09:25:35;1.20;;;0.90;;
1999;SDS011;1001;48.87406500;9.59633600;2022-07-03T09:28:01;1.10;;;0.83;;
1999;SDS011;1001;48.87406500;9.59633600;2022-07-03T09:30:29;14.07;;;1.47;;
1999;SDS011;1001;48.87406500;9.59633600;2022-07-03T09:32:57;3.20;;;1.10;;
1999;SDS011;1001;48.87406500;9.59633600;2022-07-03T09:35:25;1.93;;;0.83;;
1999;SDS011;1001;48.87406500;9.59633600;2022-07-03T09:37:53;1.20;;;1.10;;
1999;SDS011;1001;48.87406500;9.59633600;2022-07-03T09:40:21;1.30;;;1.00;;
1999;SDS011;1001;48.87406500;9.59633600;2022-07-03T09:42:58;2.07;;;1.30;;
1999;SDS011;1001;48.87406500;9.59633600;2022-07-03T09:45:26;1.87;;;1.10;;
1999;SDS011;1001;48.87406500;9.59633600;2022-07-03T09:47:55;1.50;;;1.00;;
1999;SDS011;1001;48.87406500;9.59633600;2022-07-03T09:50:21;0.93;;;0.93;;
1999;SDS011;1001;48.87406500;9.59633600;2022-07-03T09:52:48;4.30;;;1.27;;
1999;SDS011;1001;48.87406500;9.59633600;2022-07-03T09:55:15;2.90;;;1.17;;
1999;SDS011;1001;48.87406500;9.59633600;2022-07-03T09:57:45;1.10;;;1.00;;
1999;SDS011;1001;48.87406500;9.59633600;2022-07-03T10:00:24;4.17;;;1.20;;
1999;SDS011;1001;48.87406500;9.59633600;2022-07-03T10:02:52;1.23;;;1.00;;
1999;SDS011;1001;48.87406500;9.59633600;2022-07-03T10:05:23;2.00;;;1.10;;
1999;SDS011;1001;48.87406500;9.59633600;2022-07-03T10:07:52;6.10;;;1.40;;
1999;SDS011;1001;48.87406500;9.59633600;2022-07-03T10:10:21;1.23;;;1.00;;
1999;SDS011;1001;48.87406500;9.59633600;2022-07-03T10:12:49;0.93;;;0.90;;
1999;SDS011;1001;48.87406500;9.59633600;2022-07-03T10:15:17;1.60;;;1.10;;
1999;SDS011;1001;48.87406500;9.59633600;2022-07-03T10:17:46;1.43;;;1.10;;
1999;SDS011;1001;48.87406500;9.59633600;2022-07-03T10:20:19;1.90;;;1.03;;
1999;SDS011;1001;48.87406500;9.59633600;2022-07-03T10:22:50;1.37;;;1.27;;
1999;SDS011;1001;48.87406500;9.59633600;2022-07-03T10:25:18;2.40;;;1.40;;
1999;SDS011;1001;48.87406500;9.59633600;2022-07-03T10:27:44;1.13;;;1.03;;
1999;SDS011;1001;48.87406500;9.59633600;2022-07-03T10:30:13;1.60;;;1.43;;
1999;SDS011;1001;48.87406500;9.59633600;2022-07-03T10:32:41;1.40;;;1.00;;
1999;SDS011;1001;48.87406500;9.59633600;2022-07-03T10:35:10;1.50;;;1.20;;
1999;SDS011;1001;48.87406500;9.59633600;2022-07-03T10:37:41;1.03;;;0.93;;
1999;SDS011;1001;48.87406500;9.59633600;2022-07-03T10:40:18;4.13;;;1.17;;
1999;SDS011;1001;48.87406500;9.59633600;2022-07-03T10:43:13;1.50;;;1.10;;
1999;SDS011;1001;48.87406500;9.59633600;2022-07-03T10:46:07;1.17;;;1.07;;
1999;SDS011;1001;48.87406500;9.59633600;2022-07-03T10:48:50;1.07;;;0.97;;
1999;SDS011;1001;48.87406500;9.59633600;2022-07-03T10:51:17;1.00;;;1.00;;
1999;SDS011;1001;48.87406500;9.59633600;2022-07-03T10:53:45;2.87;;;0.80;;
1999;SDS011;1001;48.87406500;9.59633600;2022-07-03T10:56:13;1.57;;;0.90;;
1999;SDS011;1001;48.87406500;9.59633600;2022-07-03T10:58:56;1.50;;;1.17;;
1999;SDS011;1001;48.87406500;9.59633600;2022-07-03T11:01:26;2.27;;;1.00;;
1999;SDS011;1001;48.87406500;9.59633600;2022-07-03T11:03:54;1.10;;;0.90;;
1999;SDS011;1001;48.87406500;9.59633600;2022-07-03T11:09:28;1.27;;;0.80;;
1999;SDS011;1001;48.87406500;9.59633600;2022-07-03T11:11:55;1.20;;;1.00;;
1999;SDS011;1001;48.87406500;9.59633600;2022-07-03T11:14:22;1.07;;;1.00;;
1999;SDS011;1001;48.87406500;9.59633600;2022-07-03T11:16:52;1.00;;;1.00;;
1999;SDS011;1001;48.87406500;9.59633600;2022-07-03T11:19:45;5.23;;;0.83;;
1999;SDS011;1001;48.87406500;9.59633600;2022-07-03T11:22:37;1.93;;;0.90;;
1999;SDS011;1001;48.87406500;9.59633600;2022-07-03T11:25:16;1.53;;;0.90;;
1999;SDS011;1001;48.87406500;9.59633600;2022-07-03T11:27:43;1.10;;;1.00;;
1999;SDS011;1001;48.87406500;9.59633600;2022-07-03T11:30:13;1.10;;;0.80;;
1999;SDS011;1001;48.87406500;9.59633600;2022-07-03T11:32:43;0.83;;;0.83;;
1999;SDS011;1001;48.87406500;9.59633600;2022-07-03T11:38:26;1.30;;;0.80;;
1999;SDS011;1001;48.87406500;9.59633600;2022-07-03T11:40:56;1.03;;;0.70;;
1999;SDS011;1001;48.87406500;9.59633600;2022-07-03T11:43:24;1.13;;;1.03;;
1999;SDS011;1001;48.87406500;9.59633600;2022-07-03T11:45:51;0.93;;;0.93;;
1999;SDS011;1001;48.87406500;9.59633600;2022-07-03T11:48:19;1.57;;;0.90;;
1999;SDS011;1001;48.87406500;9.59633600;2022-07-03T11:50:47;2.50;;;0.80;;
1999;SDS011;1001;48.87406500;9.59633600;2022-07-03T11:53:18;2.80;;;1.07;;
1999;SDS011;1001;48.87406500;9.59633600;2022-07-03T11:55:46;1.73;;;1.10;;
1999;SDS011;1001;48.87406500;9.59633600;2022-07-03T11:58:15;1.13;;;1.03;;
1999;SDS011;1001;48.87406500;9.59633600;2022-07-03T12:00:42;1.43;;;0.80;;
1999;SDS011;1001;48.87406500;9.59633600;2022-07-03T12:03:09;2.40;;;1.17;;
1999;SDS011;1001;48.87406500;9.59633600;2022-07-03T12:05:48;1.20;;;1.10;;
1999;SDS011;1001;48.87406500;9.59633600;2022-07-03T12:08:20;1.50;;;1.00;;
1999;SDS011;1001;48.87406500;9.59633600;2022-07-03T12:10:48;1.50;;;1.40;;
1999;SDS011;1001;48.87406500;9.59633600;2022-07-03T12:13:20;1.00;;;0.90;;
1999;SDS011;1001;48.87406500;9.59633600;2022-07-03T12:15:46;1.83;;;0.80;;
1999;SDS011;1001;48.87406500;9.59633600;2022-07-03T12:18:13;1.27;;;1.10;;
1999;SDS011;1001;48.87406500;9.59633600;2022-07-03T12:20:40;1.33;;;1.23;;
1999;SDS011;1001;48.87406500;9.59633600;2022-07-03T12:23:07;1.27;;;0.90;;
1999;SDS011;1001;48.87406500;9.59633600;2022-07-03T12:25:37;1.20;;;1.00;;
1999;SDS011;1001;48.87406500;9.59633600;2022-07-03T12:28:04;1.17;;;1.00;;
1999;SDS011;1001;48.87406500;9.59633600;2022-07-03T12:30:33;1.17;;;1.07;;
1999;SDS011;1001;48.87406500;9.59633600;2022-07-03T12:33:00;1.30;;;1.00;;
1999;SDS011;1001;48.87406500;9.59633600;2022-07-03T12:35:27;1.67;;;0.93;;
1999;SDS011;1001;48.87406500;9.59633600;2022-07-03T12:37:54;0.93;;;0.83;;
1999;SDS011;1001;48.87406500;9.59633600;2022-07-03T12:40:22;1.10;;;1.00;;
1999;SDS011;1001;48.87406500;9.59633600;2022-07-03T12:42:49;2.80;;;0.70;;
1999;SDS011;1001;48.87406500;9.59633600;2022-07-03T12:45:17;1.87;;;1.13;;
1999;SDS011;1001;48.87406500;9.59633600;2022-07-03T12:47:46;1.10;;;1.00;;
1999;SDS011;1001;48.87406500;9.59633600;2022-07-03T12:50:23;1.80;;;1.17;;
1999;SDS011;1001;48.87406500;9.59633600;2022-07-03T12:52:51;1.10;;;1.00;;
1999;SDS011;1001;48.87406500;9.59633600;2022-07-03T12:55:22;1.83;;;1.07;;
1999;SDS011;1001;48.87406500;9.59633600;2022-07-03T13:00:56;1.13;;;0.93;;
1999;SDS011;1001;48.87406500;9.59633600;2022-07-03T13:03:28;1.13;;;0.77;;
1999;SDS011;1001;48.87406500;9.59633600;2022-07-03T13:05:56;1.77;;;1.17;;
1999;SDS011;1001;48.87406500;9.59633600;2022-07-03T13:08:22;0.87;;;0.87;;
1999;SDS011;1001;48.87406500;9.59633600;2022-07-03T13:10:55;1.10;;;0.90;;
1999;SDS011;1001;48.87406500;9.59633600;2022-07-03T13:13:22;0.87;;;0.87;;
1999;SDS011;1001;48.87406500;9.59633600;2022-07-03T13:15:49;1.13;;;1.00;;
1999;SDS011;1001;48.87406500;9.59633600;2022-07-03T13:18:16;2.00;;;1.03;;
1999;SDS011;1001;48.87406500;9.59633600;2022-07-03T13:20:44;0.97;;;0.97;;
1999;SDS011;1001;48.87406500;9.59633600;2022-07-03T13:23:10;1.83;;;1.00;;
1999;SDS011;1001;48.87406500;9.59633600;2022-07-03T13:25:37;1.60;;;1.00;;
1999;SDS011;1001;48.87406500;9.59633600;2022-07-03T13:28:08;3.37;;;1.37;;
1999;SDS011;1001;48.87406500;9.59633600;2022-07-03T13:30:35;1.63;;;0.83;;
1999;SDS011;1001;48.87406500;9.59633600;2022-07-03T13:33:03;1.17;;;1.00;;